Time;durP1;ratioP1;P1;durP2;ratioP2;P2;SDS_P1;SDS_P2;PMS_P1;PMS_P2;Temp;Humidity;BMP_temperature;BMP_pressure;BME280_temperature;BME280_humidity;BME280_pressure;Samples;Min_cycle;Max_cycle;Signal;HPM_P1;HPM_P2
2023/07/25 00:00:09;;;;;;;2.78;1.60;;;;;;;;;;5017497;28;20448;-77
2023/07/25 00:02:34;;;;;;;4.72;1.83;;;;;;;;;;5017145;28;20026;-79
2023/07/25 00:04:59;;;;;;;2.83;1.80;;;;;;;;;;5018789;28;20028;-79
2023/07/25 00:07:24;;;;;;;2.60;1.60;;;;;;;;;;5015301;28;20251;-79
2023/07/25 00:09:50;;;;;;;4.07;2.10;;;;;;;;;;5017301;28;20030;-80
2023/07/25 00:12:16;;;;;;;1.90;1.67;;;;;;;;;;5017495;28;20068;-79
2023/07/25 00:14:41;;;;;;;4.35;1.70;;;;;;;;;;5018230;28;20026;-80
2023/07/25 00:17:06;;;;;;;2.97;1.80;;;;;;;;;;5016844;28;20030;-80
2023/07/25 00:19:32;;;;;;;2.50;1.70;;;;;;;;;;5013808;28;20026;-77
2023/07/25 00:21:57;;;;;;;3.42;1.63;;;;;;;;;;5016084;28;20512;-79
2023/07/25 00:24:22;;;;;;;2.78;1.83;;;;;;;;;;5016587;28;20036;-79
2023/07/25 00:26:47;;;;;;;3.13;1.70;;;;;;;;;;5016558;28;20034;-79
2023/07/25 00:29:13;;;;;;;3.10;1.60;;;;;;;;;;5014264;28;20259;-79
2023/07/25 00:31:38;;;;;;;3.13;1.80;;;;;;;;;;5016599;28;20339;-77
2023/07/25 00:34:04;;;;;;;2.97;1.80;;;;;;;;;;5014440;28;20271;-77
2023/07/25 00:36:29;;;;;;;3.35;1.80;;;;;;;;;;5016428;28;20290;-77
2023/07/25 00:38:55;;;;;;;3.88;1.70;;;;;;;;;;5015260;28;20022;-78
2023/07/25 00:41:20;;;;;;;5.38;1.92;;;;;;;;;;5016455;28;20073;-77
2023/07/25 00:43:45;;;;;;;3.33;1.55;;;;;;;;;;5016620;28;20026;-77
2023/07/25 00:46:11;;;;;;;2.40;1.80;;;;;;;;;;5016221;28;20111;-78
2023/07/25 00:48:36;;;;;;;3.33;1.83;;;;;;;;;;5015741;28;20274;-77
2023/07/25 00:51:03;;;;;;;5.13;1.80;;;;;;;;;;5015381;28;20065;-77
2023/07/25 00:53:29;;;;;;;2.20;1.70;;;;;;;;;;5015465;28;20025;-77
2023/07/25 00:55:55;;;;;;;4.78;2.05;;;;;;;;;;5015793;28;20029;-77
2023/07/25 00:58:21;;;;;;;2.30;1.88;;;;;;;;;;5015741;28;20117;-77
2023/07/25 01:00:46;;;;;;;3.92;1.80;;;;;;;;;;5015750;28;20037;-78
2023/07/25 01:03:12;;;;;;;3.08;1.90;;;;;;;;;;5015356;28;20028;-77
2023/07/25 01:05:41;;;;;;;3.63;1.90;;;;;;;;;;5014269;28;20029;-77
2023/07/25 01:08:07;;;;;;;2.40;1.70;;;;;;;;;;5015638;28;20029;-77
2023/07/25 01:10:34;;;;;;;2.90;1.83;;;;;;;;;;5015461;28;20029;-77
2023/07/25 01:12:59;;;;;;;2.38;1.60;;;;;;;;;;5015588;28;20075;-78
2023/07/25 01:15:25;;;;;;;2.58;1.77;;;;;;;;;;5016126;28;20025;-77
2023/07/25 01:17:50;;;;;;;2.30;1.70;;;;;;;;;;5015397;28;20049;-77
2023/07/25 01:20:16;;;;;;;2.10;1.50;;;;;;;;;;5015106;28;20029;-77
2023/07/25 01:22:42;;;;;;;3.75;1.85;;;;;;;;;;5015529;28;20030;-77
2023/07/25 01:25:08;;;;;;;3.97;1.85;;;;;;;;;;5014260;28;20481;-77
2023/07/25 01:27:33;;;;;;;3.33;1.77;;;;;;;;;;5014900;28;20100;-77
2023/07/25 01:29:58;;;;;;;2.47;1.50;;;;;;;;;;5015076;28;20378;-77
2023/07/25 01:32:24;;;;;;;4.63;1.80;;;;;;;;;;5013903;28;20061;-78
2023/07/25 01:34:49;;;;;;;2.45;1.67;;;;;;;;;;5014254;28;20120;-78
2023/07/25 01:37:15;;;;;;;2.67;1.63;;;;;;;;;;5013797;28;20017;-78
2023/07/25 01:39:42;;;;;;;2.20;1.70;;;;;;;;;;5015033;28;20282;-78
2023/07/25 01:42:07;;;;;;;2.63;1.55;;;;;;;;;;5014142;28;20068;-78
2023/07/25 01:44:33;;;;;;;3.95;1.58;;;;;;;;;;5015157;28;20485;-77
2023/07/25 01:46:58;;;;;;;3.35;1.55;;;;;;;;;;5014507;28;20076;-77
2023/07/25 01:49:23;;;;;;;2.35;1.30;;;;;;;;;;5014590;28;20025;-78
2023/07/25 01:51:48;;;;;;;3.83;1.42;;;;;;;;;;5013355;28;20021;-77
2023/07/25 01:54:16;;;;;;;2.00;1.70;;;;;;;;;;5014266;28;20022;-77
2023/07/25 01:56:42;;;;;;;3.60;1.80;;;;;;;;;;5013026;28;20279;-77
2023/07/25 01:59:07;;;;;;;1.95;1.40;;;;;;;;;;5012969;28;20033;-78
2023/07/25 02:01:32;;;;;;;1.60;1.20;;;;;;;;;;5014081;28;20030;-77
2023/07/25 02:03:57;;;;;;;2.33;1.50;;;;;;;;;;5013961;28;20262;-77
2023/07/25 02:06:23;;;;;;;2.23;1.40;;;;;;;;;;5012888;28;20255;-77
2023/07/25 02:08:48;;;;;;;2.47;1.60;;;;;;;;;;5014615;28;20263;-78
2023/07/25 02:11:13;;;;;;;3.38;1.60;;;;;;;;;;5014865;28;20022;-78
2023/07/25 02:13:38;;;;;;;2.10;1.40;;;;;;;;;;5014889;28;20025;-78
2023/07/25 02:16:04;;;;;;;4.22;1.80;;;;;;;;;;5016587;28;20029;-78
2023/07/25 02:18:29;;;;;;;3.13;1.60;;;;;;;;;;5016216;28;20079;-78
2023/07/25 02:20:54;;;;;;;3.17;1.70;;;;;;;;;;5016767;28;20504;-78
2023/07/25 02:23:20;;;;;;;2.37;1.50;;;;;;;;;;5016902;28;20037;-78
2023/07/25 02:25:47;;;;;;;4.03;1.40;;;;;;;;;;5014335;28;20266;-78
2023/07/25 02:28:12;;;;;;;5.25;1.80;;;;;;;;;;5016174;28;20747;-77
2023/07/25 02:30:37;;;;;;;2.95;1.65;;;;;;;;;;5016331;28;20022;-77
2023/07/25 02:33:03;;;;;;;3.17;1.70;;;;;;;;;;5016157;28;20034;-78
2023/07/25 02:35:28;;;;;;;3.97;1.40;;;;;;;;;;5015611;28;20071;-77
2023/07/25 02:37:53;;;;;;;1.73;1.50;;;;;;;;;;5015434;28;20275;-77
2023/07/25 02:40:18;;;;;;;3.63;1.80;;;;;;;;;;5015895;28;20252;-78
2023/07/25 02:42:44;;;;;;;2.60;1.50;;;;;;;;;;5014004;28;20362;-77
2023/07/25 02:45:09;;;;;;;2.40;1.50;;;;;;;;;;5015293;28;20316;-78
2023/07/25 02:47:35;;;;;;;3.63;1.60;;;;;;;;;;5015149;28;20263;-77
2023/07/25 02:50:00;;;;;;;3.60;1.40;;;;;;;;;;5015604;28;20034;-77
2023/07/25 02:52:25;;;;;;;2.77;1.70;;;;;;;;;;5014469;28;20392;-77
2023/07/25 02:54:50;;;;;;;2.30;1.30;;;;;;;;;;5016282;28;20256;-77
2023/07/25 02:57:16;;;;;;;1.77;1.37;;;;;;;;;;5014406;28;20283;-77
2023/07/25 02:59:41;;;;;;;3.65;1.55;;;;;;;;;;5015826;28;20258;-78
2023/07/25 03:02:07;;;;;;;2.20;1.40;;;;;;;;;;5014477;28;20397;-77
2023/07/25 03:04:32;;;;;;;2.78;1.50;;;;;;;;;;5014218;28;20053;-77
2023/07/25 03:06:57;;;;;;;5.10;1.73;;;;;;;;;;5015649;28;20022;-77
2023/07/25 03:09:22;;;;;;;4.90;2.20;;;;;;;;;;5015671;28;20267;-78
2023/07/25 03:11:47;;;;;;;1.93;1.30;;;;;;;;;;5015316;28;20314;-77
2023/07/25 03:14:13;;;;;;;5.13;1.60;;;;;;;;;;5015489;28;20259;-77
2023/07/25 03:16:38;;;;;;;4.00;1.50;;;;;;;;;;5015319;28;20287;-78
2023/07/25 03:19:03;;;;;;;3.70;1.52;;;;;;;;;;5015678;28;20274;-78
2023/07/25 03:21:28;;;;;;;2.10;1.30;;;;;;;;;;5015710;28;20477;-78
2023/07/25 03:23:54;;;;;;;2.75;1.65;;;;;;;;;;5014466;28;20634;-77
2023/07/25 03:26:19;;;;;;;6.53;1.50;;;;;;;;;;5015500;28;20026;-77
2023/07/25 03:28:44;;;;;;;3.38;1.75;;;;;;;;;;5014056;28;20057;-77
2023/07/25 03:31:09;;;;;;;2.25;1.60;;;;;;;;;;5015308;28;20072;-78
2023/07/25 03:33:35;;;;;;;4.03;1.43;;;;;;;;;;5014262;28;20045;-78
2023/07/25 03:36:00;;;;;;;3.70;2.03;;;;;;;;;;5015748;28;20262;-78
2023/07/25 03:38:25;;;;;;;3.50;1.83;;;;;;;;;;5015579;28;20247;-78
2023/07/25 03:40:51;;;;;;;2.83;1.70;;;;;;;;;;5018165;28;20504;-78
2023/07/25 03:43:16;;;;;;;2.93;1.53;;;;;;;;;;5020075;28;20259;-78
2023/07/25 03:45:41;;;;;;;4.72;1.70;;;;;;;;;;5018925;28;20259;-77
2023/07/25 03:48:08;;;;;;;5.05;1.70;;;;;;;;;;5017779;28;20477;-78
2023/07/25 03:50:34;;;;;;;2.50;1.65;;;;;;;;;;5018379;28;20047;-78
2023/07/25 03:52:59;;;;;;;3.25;1.67;;;;;;;;;;5017805;28;20034;-77
2023/07/25 03:55:24;;;;;;;5.03;1.58;;;;;;;;;;5018051;28;20034;-77
2023/07/25 03:57:50;;;;;;;3.40;1.70;;;;;;;;;;5018426;28;20113;-77
2023/07/25 04:00:16;;;;;;;9.23;1.60;;;;;;;;;;5019077;28;20025;-78
2023/07/25 04:02:41;;;;;;;3.75;1.60;;;;;;;;;;5018431;28;20076;-78
2023/07/25 04:05:07;;;;;;;7.15;1.70;;;;;;;;;;5018506;28;20088;-77
2023/07/25 04:07:34;;;;;;;2.88;1.58;;;;;;;;;;5017997;28;20492;-78
2023/07/25 04:09:59;;;;;;;1.88;1.60;;;;;;;;;;5017653;28;20022;-78
2023/07/25 04:12:24;;;;;;;3.92;1.77;;;;;;;;;;5016746;28;20413;-78
2023/07/25 04:14:50;;;;;;;2.63;1.60;;;;;;;;;;5018260;28;20024;-78
2023/07/25 04:17:15;;;;;;;5.50;1.90;;;;;;;;;;5017111;28;20280;-79
2023/07/25 04:19:40;;;;;;;5.23;2.00;;;;;;;;;;5018460;28;20021;-78
2023/07/25 04:22:05;;;;;;;5.90;1.97;;;;;;;;;;5017392;28;20267;-78
2023/07/25 04:24:30;;;;;;;5.20;2.13;;;;;;;;;;5018885;28;20347;-78
2023/07/25 04:26:56;;;;;;;4.77;2.03;;;;;;;;;;5018418;28;20742;-78
2023/07/25 04:29:21;;;;;;;6.70;1.90;;;;;;;;;;5017699;28;20314;-78
2023/07/25 04:31:47;;;;;;;5.17;1.97;;;;;;;;;;5017928;28;20378;-77
2023/07/25 04:34:12;;;;;;;3.97;1.85;;;;;;;;;;5017994;28;20623;-78
2023/07/25 04:36:37;;;;;;;4.97;2.20;;;;;;;;;;5017208;28;20022;-77
2023/07/25 04:39:03;;;;;;;3.67;1.90;;;;;;;;;;5017726;28;20026;-78
2023/07/25 04:41:28;;;;;;;5.30;2.10;;;;;;;;;;5018331;28;20260;-78
2023/07/25 04:43:53;;;;;;;6.50;2.20;;;;;;;;;;5017300;28;20342;-78
2023/07/25 04:46:18;;;;;;;2.87;1.90;;;;;;;;;;5016803;28;20026;-77
2023/07/25 04:48:44;;;;;;;4.78;1.80;;;;;;;;;;5016449;28;20260;-77
2023/07/25 04:51:09;;;;;;;6.68;2.10;;;;;;;;;;5016016;28;20048;-77
2023/07/25 04:53:34;;;;;;;5.28;1.85;;;;;;;;;;5015938;28;20022;-78
2023/07/25 04:55:59;;;;;;;3.10;1.80;;;;;;;;;;5017441;28;20022;-78
2023/07/25 04:58:25;;;;;;;4.55;1.90;;;;;;;;;;5015774;28;20370;-78
2023/07/25 05:00:50;;;;;;;5.07;1.70;;;;;;;;;;5017580;28;20394;-78
2023/07/25 05:03:15;;;;;;;6.65;2.15;;;;;;;;;;5017359;28;20259;-78
2023/07/25 05:05:40;;;;;;;3.53;1.50;;;;;;;;;;5016472;28;20030;-77
2023/07/25 05:08:06;;;;;;;6.17;2.10;;;;;;;;;;5016162;28;20734;-77
2023/07/25 05:10:31;;;;;;;2.27;1.70;;;;;;;;;;5014917;28;20291;-77
2023/07/25 05:12:57;;;;;;;4.75;2.10;;;;;;;;;;5016617;28;20325;-78
2023/07/25 05:15:23;;;;;;;6.93;1.50;;;;;;;;;;5020298;28;20032;-77
2023/07/25 05:17:48;;;;;;;4.72;1.83;;;;;;;;;;5018520;28;20444;-77
2023/07/25 05:20:13;;;;;;;5.30;2.00;;;;;;;;;;5018163;28;20435;-77
2023/07/25 05:22:38;;;;;;;3.58;1.73;;;;;;;;;;5019087;28;20036;-78
2023/07/25 05:25:04;;;;;;;6.47;1.90;;;;;;;;;;5015719;28;20029;-76
2023/07/25 05:27:29;;;;;;;5.55;1.70;;;;;;;;;;5014936;28;20030;-76
2023/07/25 05:29:54;;;;;;;3.42;1.80;;;;;;;;;;5013946;28;20172;-77
2023/07/25 05:32:21;;;;;;;9.30;1.80;;;;;;;;;;5015004;28;20511;-76
2023/07/25 05:34:47;;;;;;;5.90;1.70;;;;;;;;;;5016476;28;20273;-77
2023/07/25 05:37:12;;;;;;;2.47;1.65;;;;;;;;;;5015967;28;20541;-78
2023/07/25 05:39:37;;;;;;;7.03;1.80;;;;;;;;;;5014601;28;20026;-77
2023/07/25 05:42:03;;;;;;;5.68;2.03;;;;;;;;;;5015445;28;20022;-77
2023/07/25 05:44:29;;;;;;;6.40;1.90;;;;;;;;;;5015498;28;20105;-77
2023/07/25 05:46:54;;;;;;;7.00;2.03;;;;;;;;;;5014641;28;20037;-77
2023/07/25 05:49:19;;;;;;;4.18;1.90;;;;;;;;;;5013933;28;20140;-77
2023/07/25 05:51:44;;;;;;;8.97;2.10;;;;;;;;;;5012980;28;20026;-77
2023/07/25 05:54:10;;;;;;;5.40;1.93;;;;;;;;;;5014256;28;20277;-77
2023/07/25 05:56:35;;;;;;;8.60;2.00;;;;;;;;;;5014120;28;20707;-77
2023/07/25 05:59:00;;;;;;;4.00;1.90;;;;;;;;;;5014182;28;20267;-78
2023/07/25 06:01:25;;;;;;;4.77;2.03;;;;;;;;;;5013765;28;20319;-77
2023/07/25 06:03:51;;;;;;;5.43;2.20;;;;;;;;;;5014229;28;20308;-78
2023/07/25 06:06:16;;;;;;;6.63;2.30;;;;;;;;;;5014063;28;20025;-77
2023/07/25 06:08:41;;;;;;;9.73;2.43;;;;;;;;;;5014303;28;20269;-78
2023/07/25 06:11:06;;;;;;;6.40;2.22;;;;;;;;;;5013239;28;20283;-78
2023/07/25 06:13:33;;;;;;;6.95;2.55;;;;;;;;;;5014081;28;20041;-78
2023/07/25 06:15:59;;;;;;;5.63;2.08;;;;;;;;;;5012778;28;20025;-77
2023/07/25 06:18:24;;;;;;;9.15;2.40;;;;;;;;;;5013931;28;20049;-77
2023/07/25 06:20:49;;;;;;;6.30;2.15;;;;;;;;;;5012539;28;20022;-78
2023/07/25 06:23:15;;;;;;;6.65;2.47;;;;;;;;;;5014233;28;20084;-77
2023/07/25 06:25:40;;;;;;;6.40;2.10;;;;;;;;;;5012964;28;20080;-78
2023/07/25 06:28:06;;;;;;;7.82;2.33;;;;;;;;;;5012805;28;20025;-77
2023/07/25 06:30:31;;;;;;;8.32;2.33;;;;;;;;;;5013832;28;20026;-77
2023/07/25 06:32:57;;;;;;;9.35;2.63;;;;;;;;;;5013818;28;20472;-77
2023/07/25 06:35:22;;;;;;;10.07;2.20;;;;;;;;;;5013747;28;20037;-77
2023/07/25 06:37:48;;;;;;;7.10;2.30;;;;;;;;;;5012838;28;20279;-77
2023/07/25 06:40:14;;;;;;;4.88;2.20;;;;;;;;;;5013609;28;20026;-77
2023/07/25 06:42:39;;;;;;;4.47;2.22;;;;;;;;;;5015281;28;20021;-77
2023/07/25 06:45:05;;;;;;;4.03;2.40;;;;;;;;;;5014829;28;20021;-77
2023/07/25 06:47:30;;;;;;;4.63;2.28;;;;;;;;;;5013011;28;20022;-78
2023/07/25 06:49:56;;;;;;;6.75;2.42;;;;;;;;;;5014957;28;20088;-78
2023/07/25 06:52:21;;;;;;;3.42;2.20;;;;;;;;;;5015381;28;20032;-77
2023/07/25 06:54:46;;;;;;;4.35;2.38;;;;;;;;;;5015757;28;20512;-77
2023/07/25 06:57:12;;;;;;;5.47;2.38;;;;;;;;;;5015308;28;20064;-78
2023/07/25 06:59:37;;;;;;;2.58;1.52;;;;;;;;;;5014821;28;20021;-77
2023/07/25 07:02:03;;;;;;;6.68;2.40;;;;;;;;;;5015061;28;20054;-77
2023/07/25 07:04:28;;;;;;;3.97;2.10;;;;;;;;;;5014027;28;20024;-77
2023/07/25 07:06:54;;;;;;;9.03;2.50;;;;;;;;;;5013468;28;20034;-77
2023/07/25 07:09:19;;;;;;;5.77;2.30;;;;;;;;;;5011669;28;20403;-76
2023/07/25 07:11:44;;;;;;;4.20;2.20;;;;;;;;;;5012466;28;20742;-77
2023/07/25 07:14:09;;;;;;;4.88;2.45;;;;;;;;;;5017834;28;20646;-77
2023/07/25 07:16:35;;;;;;;5.47;2.38;;;;;;;;;;5016119;28;20061;-78
2023/07/25 07:19:00;;;;;;;3.88;2.30;;;;;;;;;;5018121;28;20045;-78
2023/07/25 07:21:25;;;;;;;4.38;2.33;;;;;;;;;;5016200;28;20033;-77
2023/07/25 07:23:53;;;;;;;3.63;2.40;;;;;;;;;;5015717;28;20025;-81
2023/07/25 07:26:19;;;;;;;6.68;2.47;;;;;;;;;;5019454;28;20061;-78
2023/07/25 07:28:45;;;;;;;4.95;2.40;;;;;;;;;;5017762;28;20103;-79
2023/07/25 07:31:12;;;;;;;5.28;2.47;;;;;;;;;;5016737;28;20026;-76
2023/07/25 07:33:37;;;;;;;6.50;2.40;;;;;;;;;;5017117;28;20018;-77
2023/07/25 07:36:02;;;;;;;9.05;2.65;;;;;;;;;;5015489;28;20048;-78
2023/07/25 07:38:28;;;;;;;5.68;2.40;;;;;;;;;;5017123;28;20120;-78
2023/07/25 07:40:53;;;;;;;6.17;2.37;;;;;;;;;;5017737;28;20026;-79
2023/07/25 07:43:18;;;;;;;6.82;2.22;;;;;;;;;;5018443;28;20623;-77
2023/07/25 07:45:44;;;;;;;6.75;2.47;;;;;;;;;;5017242;28;20076;-77
2023/07/25 07:48:09;;;;;;;4.72;2.30;;;;;;;;;;5016483;28;20049;-75
2023/07/25 07:50:34;;;;;;;8.55;2.15;;;;;;;;;;5015627;28;20059;-77
2023/07/25 07:53:00;;;;;;;3.88;2.40;;;;;;;;;;5017925;28;20412;-75
2023/07/25 07:55:25;;;;;;;7.68;2.20;;;;;;;;;;5016472;28;20026;-76
2023/07/25 07:57:50;;;;;;;4.88;2.22;;;;;;;;;;5016292;28;20062;-76
2023/07/25 08:00:16;;;;;;;7.43;2.58;;;;;;;;;;5015300;28;20079;-75
2023/07/25 08:02:43;;;;;;;7.75;2.45;;;;;;;;;;5015818;28;20040;-74
2023/07/25 08:05:10;;;;;;;6.60;2.42;;;;;;;;;;5016247;28;20105;-73
2023/07/25 08:07:36;;;;;;;5.22;2.30;;;;;;;;;;5016831;28;20061;-74
2023/07/25 08:10:02;;;;;;;6.82;2.28;;;;;;;;;;5014932;28;20061;-74
2023/07/25 08:12:27;;;;;;;4.78;2.20;;;;;;;;;;5016474;28;20021;-74
2023/07/25 08:14:53;;;;;;;8.00;2.28;;;;;;;;;;5016689;28;20028;-74
2023/07/25 08:17:18;;;;;;;3.17;2.03;;;;;;;;;;5016539;28;20129;-74
2023/07/25 08:19:44;;;;;;;4.30;2.28;;;;;;;;;;5015583;28;20025;-73
2023/07/25 08:22:10;;;;;;;4.63;2.05;;;;;;;;;;5016650;28;20057;-74
2023/07/25 08:24:35;;;;;;;7.40;2.20;;;;;;;;;;5014603;28;20025;-74
2023/07/25 08:27:00;;;;;;;10.60;2.55;;;;;;;;;;5016403;28;20207;-75
2023/07/25 08:29:26;;;;;;;6.00;2.30;;;;;;;;;;5016115;28;20025;-74
2023/07/25 08:31:51;;;;;;;5.05;2.35;;;;;;;;;;5014958;28;20120;-74
2023/07/25 08:34:17;;;;;;;6.80;2.10;;;;;;;;;;5014957;28;20026;-74
2023/07/25 08:36:42;;;;;;;6.00;2.03;;;;;;;;;;5016014;28;20489;-74
2023/07/25 08:39:08;;;;;;;4.07;2.17;;;;;;;;;;5014674;28;20044;-74
2023/07/25 08:41:37;;;;;;;5.53;2.25;;;;;;;;;;5016054;28;20022;-74
2023/07/25 08:44:04;;;;;;;5.53;2.00;;;;;;;;;;5015730;28;20566;-74
2023/07/25 08:46:30;;;;;;;6.93;2.28;;;;;;;;;;5014371;28;20044;-74
2023/07/25 08:49:02;;;;;;;5.00;2.05;;;;;;;;;;5016415;28;20034;-75
2023/07/25 08:51:30;;;;;;;6.30;2.00;;;;;;;;;;5014868;28;20056;-74
2023/07/25 08:54:08;;;;;;;8.60;2.00;;;;;;;;;;5015836;28;20106;-74
2023/07/25 08:56:35;;;;;;;4.07;1.98;;;;;;;;;;5014182;28;20074;-74
2023/07/25 08:59:02;;;;;;;4.30;1.60;;;;;;;;;;5016133;28;20436;-74
2023/07/25 09:01:28;;;;;;;4.60;1.63;;;;;;;;;;5015649;28;20116;-74
2023/07/25 09:03:53;;;;;;;4.78;2.05;;;;;;;;;;5014256;28;20053;-74
2023/07/25 09:06:19;;;;;;;4.88;1.92;;;;;;;;;;5015616;28;20072;-74
2023/07/25 09:08:44;;;;;;;2.72;1.55;;;;;;;;;;5015340;28;20500;-74
2023/07/25 09:11:10;;;;;;;4.70;2.10;;;;;;;;;;5014678;28;20119;-74
2023/07/25 09:13:37;;;;;;;4.93;1.70;;;;;;;;;;5015606;28;20630;-75
2023/07/25 09:16:02;;;;;;;5.30;1.88;;;;;;;;;;5015826;28;20507;-75
2023/07/25 09:18:28;;;;;;;2.95;1.60;;;;;;;;;;5015103;28;20056;-74
2023/07/25 09:20:53;;;;;;;3.00;1.88;;;;;;;;;;5014168;28;20397;-74
2023/07/25 09:23:21;;;;;;;5.45;1.90;;;;;;;;;;5014421;28;20045;-75
2023/07/25 09:25:46;;;;;;;3.58;1.90;;;;;;;;;;5015512;28;20032;-75
2023/07/25 09:28:11;;;;;;;1.85;1.42;;;;;;;;;;5015454;28;20022;-75
2023/07/25 09:30:37;;;;;;;3.60;2.00;;;;;;;;;;5014949;28;20026;-74
2023/07/25 09:33:04;;;;;;;3.07;1.70;;;;;;;;;;5015109;28;20351;-75
2023/07/25 09:35:30;;;;;;;2.90;1.90;;;;;;;;;;5014109;28;20259;-74
2023/07/25 09:37:55;;;;;;;2.90;1.90;;;;;;;;;;5014903;28;20456;-73
2023/07/25 09:40:20;;;;;;;5.70;2.00;;;;;;;;;;5013960;28;20255;-74
2023/07/25 09:42:50;;;;;;;3.42;1.80;;;;;;;;;;5014610;28;20054;-74
2023/07/25 09:45:16;;;;;;;12.82;2.05;;;;;;;;;;5015040;28;20037;-74
2023/07/25 09:47:41;;;;;;;2.92;2.10;;;;;;;;;;5014711;28;20133;-74
2023/07/25 09:50:07;;;;;;;3.87;1.73;;;;;;;;;;5014655;28;20549;-74
2023/07/25 09:52:42;;;;;;;5.53;2.00;;;;;;;;;;5014616;28;20266;-74
2023/07/25 09:55:08;;;;;;;2.80;1.80;;;;;;;;;;5014423;28;20445;-73
2023/07/25 09:57:37;;;;;;;3.33;1.88;;;;;;;;;;5015375;28;20025;-79
2023/07/25 10:00:05;;;;;;;3.03;1.70;;;;;;;;;;5015228;28;20100;-74
2023/07/25 10:02:32;;;;;;;4.30;1.77;;;;;;;;;;5013955;28;20064;-74
2023/07/25 10:04:58;;;;;;;5.07;1.80;;;;;;;;;;5012673;28;20026;-75
2023/07/25 10:07:25;;;;;;;2.47;1.83;;;;;;;;;;5014251;28;20029;-75
2023/07/25 10:09:52;;;;;;;4.25;1.88;;;;;;;;;;5013492;28;20021;-75
2023/07/25 10:12:17;;;;;;;4.70;1.95;;;;;;;;;;5013569;28;20022;-74
2023/07/25 10:14:43;;;;;;;5.47;1.88;;;;;;;;;;5014585;28;20041;-74
2023/07/25 10:17:08;;;;;;;7.65;2.05;;;;;;;;;;5014472;28;20037;-74
2023/07/25 10:19:48;;;;;;;4.00;2.22;;;;;;;;;;5013421;28;20076;-74
2023/07/25 10:22:13;;;;;;;2.42;1.63;;;;;;;;;;5015205;28;20018;-73
2023/07/25 10:24:39;;;;;;;3.42;1.70;;;;;;;;;;5014131;28;20037;-76
2023/07/25 10:27:08;;;;;;;4.43;2.03;;;;;;;;;;5012276;28;20034;-77
2023/07/25 10:29:39;;;;;;;2.25;1.90;;;;;;;;;;5012727;28;20029;-76
2023/07/25 10:32:05;;;;;;;2.72;2.00;;;;;;;;;;5014346;28;20396;-81
2023/07/25 10:34:47;;;;;;;9.57;2.03;;;;;;;;;;5014501;28;20026;-77
2023/07/25 10:37:22;;;;;;;6.28;2.10;;;;;;;;;;5013426;28;20600;-76
2023/07/25 10:40:02;;;;;;;6.53;2.30;;;;;;;;;;5013231;28;20044;-76
2023/07/25 10:42:45;;;;;;;5.00;2.30;;;;;;;;;;5013253;28;20076;-76
2023/07/25 10:45:29;;;;;;;5.15;2.10;;;;;;;;;;5013352;28;20022;-75
2023/07/25 10:47:55;;;;;;;2.25;1.90;;;;;;;;;;5012870;28;20033;-76
2023/07/25 10:50:49;;;;;;;3.05;2.10;;;;;;;;;;5013240;28;20129;-75
2023/07/25 10:53:20;;;;;;;3.00;1.98;;;;;;;;;;5013227;28;20110;-77
2023/07/25 10:56:03;;;;;;;5.55;1.98;;;;;;;;;;5012915;28;20401;-75
2023/07/25 10:58:29;;;;;;;4.47;1.90;;;;;;;;;;5011789;28;20026;-76
2023/07/25 11:00:55;;;;;;;4.20;1.90;;;;;;;;;;5011726;28;20053;-76
2023/07/25 11:03:34;;;;;;;2.58;2.00;;;;;;;;;;5012946;28;20068;-75
2023/07/25 11:06:05;;;;;;;4.68;1.90;;;;;;;;;;5011728;28;20030;-75
2023/07/25 11:08:31;;;;;;;5.32;2.00;;;;;;;;;;5012972;28;20080;-76
2023/07/25 11:11:03;;;;;;;4.40;2.03;;;;;;;;;;5013132;28;20033;-77
2023/07/25 11:13:29;;;;;;;5.97;2.17;;;;;;;;;;5013398;28;20026;-75
2023/07/25 11:15:55;;;;;;;3.88;2.05;;;;;;;;;;5012953;28;20029;-75
2023/07/25 11:18:20;;;;;;;3.42;1.90;;;;;;;;;;5011567;28;20022;-76
2023/07/25 11:20:58;;;;;;;4.47;2.10;;;;;;;;;;5012953;28;20037;-75
2023/07/25 11:23:24;;;;;;;2.90;1.65;;;;;;;;;;5013303;28;20298;-76
2023/07/25 11:25:54;;;;;;;4.22;1.90;;;;;;;;;;5012858;28;20050;-76
2023/07/25 11:28:21;;;;;;;2.42;1.80;;;;;;;;;;5011545;28;20022;-76
2023/07/25 11:30:46;;;;;;;3.08;1.80;;;;;;;;;;5012977;28;20401;-75
2023/07/25 11:33:11;;;;;;;4.40;2.20;;;;;;;;;;5013328;28;20084;-76
2023/07/25 11:35:37;;;;;;;4.47;2.10;;;;;;;;;;5011531;28;20040;-76
2023/07/25 11:38:02;;;;;;;3.80;2.00;;;;;;;;;;5011477;28;20045;-76
2023/07/25 11:40:28;;;;;;;3.92;2.00;;;;;;;;;;5013269;28;20033;-76
2023/07/25 11:42:53;;;;;;;5.00;2.03;;;;;;;;;;5012758;28;20038;-76
2023/07/25 11:45:20;;;;;;;3.67;2.00;;;;;;;;;;5013164;28;20033;-76
2023/07/25 11:47:48;;;;;;;2.75;2.05;;;;;;;;;;5012570;28;20080;-76
2023/07/25 11:50:14;;;;;;;2.97;1.80;;;;;;;;;;5012363;28;20493;-76
2023/07/25 11:52:43;;;;;;;2.20;1.77;;;;;;;;;;5012857;28;20029;-76
2023/07/25 11:55:09;;;;;;;5.32;1.92;;;;;;;;;;5012016;28;20504;-75
2023/07/25 11:57:40;;;;;;;2.45;1.77;;;;;;;;;;5012257;28;20038;-76
2023/07/25 12:00:06;;;;;;;5.18;2.05;;;;;;;;;;5014026;28;20045;-75
2023/07/25 12:02:36;;;;;;;3.65;1.63;;;;;;;;;;5015319;28;20029;-76
2023/07/25 12:05:01;;;;;;;5.13;2.13;;;;;;;;;;5014774;28;20051;-76
2023/07/25 12:07:26;;;;;;;3.17;1.70;;;;;;;;;;5016352;28;20017;-77
2023/07/25 12:09:53;;;;;;;4.10;1.83;;;;;;;;;;5015913;28;20030;-76
2023/07/25 12:12:20;;;;;;;3.28;1.92;;;;;;;;;;5015929;28;20481;-76
2023/07/25 12:15:01;;;;;;;2.97;1.75;;;;;;;;;;5016250;28;20032;-76
2023/07/25 12:17:45;;;;;;;3.58;1.90;;;;;;;;;;5015698;28;20495;-75
2023/07/25 12:20:15;;;;;;;3.33;1.70;;;;;;;;;;5014466;28;20515;-76
2023/07/25 12:22:40;;;;;;;5.10;2.10;;;;;;;;;;5016306;28;20030;-76
2023/07/25 12:25:09;;;;;;;3.70;1.88;;;;;;;;;;5015801;28;20021;-76
2023/07/25 12:27:44;;;;;;;5.10;2.13;;;;;;;;;;5015681;28;20033;-76
2023/07/25 12:30:10;;;;;;;3.50;1.83;;;;;;;;;;5015906;28;20022;-76
2023/07/25 12:32:35;;;;;;;2.70;1.90;;;;;;;;;;5014252;28;20048;-76
2023/07/25 12:35:01;;;;;;;6.43;2.20;;;;;;;;;;5015535;28;20033;-76
2023/07/25 12:37:26;;;;;;;2.65;1.92;;;;;;;;;;5014186;28;20271;-76
2023/07/25 12:39:51;;;;;;;3.20;2.00;;;;;;;;;;5014599;28;20053;-77
2023/07/25 12:42:17;;;;;;;3.58;2.03;;;;;;;;;;5014090;28;20266;-76
2023/07/25 12:44:42;;;;;;;4.63;2.28;;;;;;;;;;5014078;28;20026;-75
2023/07/25 12:47:07;;;;;;;5.28;2.05;;;;;;;;;;5015407;28;20076;-77
2023/07/25 12:49:33;;;;;;;2.93;1.90;;;;;;;;;;5015602;28;20029;-77
2023/07/25 12:52:00;;;;;;;4.97;1.83;;;;;;;;;;5015370;28;20758;-77
2023/07/25 12:54:25;;;;;;;2.85;1.55;;;;;;;;;;5015262;28;20032;-77
2023/07/25 12:56:51;;;;;;;1.77;1.58;;;;;;;;;;5015033;28;20120;-75
2023/07/25 12:59:16;;;;;;;2.72;1.70;;;;;;;;;;5014985;28;20080;-76
2023/07/25 13:01:41;;;;;;;4.03;1.83;;;;;;;;;;5015448;28;20065;-77
2023/07/25 13:04:06;;;;;;;2.17;1.75;;;;;;;;;;5013897;28;20255;-76
2023/07/25 13:06:34;;;;;;;5.20;1.67;;;;;;;;;;5014906;28;20501;-77
2023/07/25 13:08:59;;;;;;;4.68;1.63;;;;;;;;;;5015160;28;20260;-76
2023/07/25 13:11:25;;;;;;;2.13;1.55;;;;;;;;;;5015653;28;20437;-76
2023/07/25 13:13:50;;;;;;;4.40;2.20;;;;;;;;;;5016898;28;20442;-79
2023/07/25 13:16:16;;;;;;;2.60;1.60;;;;;;;;;;5015116;28;20112;-77
2023/07/25 13:18:41;;;;;;;4.97;1.90;;;;;;;;;;5014817;28;20022;-79
2023/07/25 13:21:06;;;;;;;4.03;1.80;;;;;;;;;;5013770;28;20060;-76
2023/07/25 13:23:32;;;;;;;3.60;1.92;;;;;;;;;;5015085;28;20274;-77
2023/07/25 13:25:57;;;;;;;5.00;2.00;;;;;;;;;;5014497;28;20033;-76
2023/07/25 13:28:22;;;;;;;3.03;1.40;;;;;;;;;;5014390;28;20262;-76
2023/07/25 13:30:47;;;;;;;2.73;1.53;;;;;;;;;;5014453;28;20266;-76
2023/07/25 13:33:12;;;;;;;2.42;1.75;;;;;;;;;;5014635;28;20730;-76
2023/07/25 13:35:38;;;;;;;1.70;1.60;;;;;;;;;;5014853;28;20041;-76
2023/07/25 13:38:03;;;;;;;3.00;1.58;;;;;;;;;;5012973;28;20286;-76
2023/07/25 13:40:28;;;;;;;2.53;1.65;;;;;;;;;;5014316;28;20018;-76
2023/07/25 13:42:54;;;;;;;6.25;1.88;;;;;;;;;;5014354;28;20061;-76
2023/07/25 13:45:19;;;;;;;2.20;1.80;;;;;;;;;;5014151;28;20037;-76
2023/07/25 13:47:44;;;;;;;4.78;1.88;;;;;;;;;;5014131;28;20251;-75
2023/07/25 13:50:09;;;;;;;5.00;1.73;;;;;;;;;;5014063;28;20076;-75
2023/07/25 13:52:35;;;;;;;5.22;1.90;;;;;;;;;;5013557;28;20263;-76
2023/07/25 13:55:00;;;;;;;2.90;1.98;;;;;;;;;;5013371;28;20060;-76
2023/07/25 13:57:28;;;;;;;4.95;2.35;;;;;;;;;;5012936;28;20068;-75
2023/07/25 13:59:53;;;;;;;3.10;2.30;;;;;;;;;;5013491;28;20050;-75
2023/07/25 14:02:19;;;;;;;3.78;2.17;;;;;;;;;;5013007;28;20053;-76
2023/07/25 14:04:44;;;;;;;3.95;2.20;;;;;;;;;;5013133;28;20026;-75
2023/07/25 14:07:09;;;;;;;6.80;2.75;;;;;;;;;;5014159;28;20018;-76
2023/07/25 14:09:35;;;;;;;3.78;2.45;;;;;;;;;;5014102;28;20428;-74
2023/07/25 14:12:00;;;;;;;7.68;3.03;;;;;;;;;;5014188;28;20032;-76
2023/07/25 14:14:25;;;;;;;6.80;3.08;;;;;;;;;;5012603;28;20029;-76
2023/07/25 14:16:51;;;;;;;3.97;2.88;;;;;;;;;;5013844;28;20420;-75
2023/07/25 14:19:16;;;;;;;4.68;2.90;;;;;;;;;;5014095;28;20029;-73
2023/07/25 14:21:41;;;;;;;9.43;3.30;;;;;;;;;;5012499;28;20045;-76
2023/07/25 14:24:07;;;;;;;5.13;3.22;;;;;;;;;;5013690;28;20053;-77
2023/07/25 14:26:32;;;;;;;7.40;3.42;;;;;;;;;;5013601;28;20034;-78
2023/07/25 14:28:58;;;;;;;5.65;3.40;;;;;;;;;;5013848;28;20029;-78
2023/07/25 14:31:24;;;;;;;5.47;3.25;;;;;;;;;;5014118;28;20034;-75
2023/07/25 14:33:49;;;;;;;7.95;3.58;;;;;;;;;;5014163;28;20041;-74
2023/07/25 14:36:14;;;;;;;5.40;3.20;;;;;;;;;;5013934;28;20045;-76